Time;durP1;ratioP1;P1;durP2;ratioP2;P2;SDS_P1;SDS_P2;PMS_P1;PMS_P2;Temp;Humidity;BMP_temperature;BMP_pressure;BME280_temperature;BME280_humidity;BME280_pressure;Samples;Min_cycle;Max_cycle;Signal;HPM_P1;HPM_P2
2023/06/28 00:00:42;;;;;;;5.70;2.55;;;;;;;16.51;54.57;96213.00;2115947;28;20040;-57
2023/06/28 00:01:43;;;;;;;5.93;2.65;;;;;;;16.50;54.60;96213.97;2114949;28;20055;-57
2023/06/28 00:02:44;;;;;;;5.07;2.22;;;;;;;16.50;54.62;96211.34;2115977;28;20439;-57
2023/06/28 00:03:47;;;;;;;3.35;1.75;;;;;;;16.49;54.62;96207.03;2115908;28;20035;-57
2023/06/28 00:04:48;;;;;;;4.75;2.20;;;;;;;16.50;54.14;96208.72;2115004;28;20047;-57
2023/06/28 00:05:49;;;;;;;4.97;2.20;;;;;;;16.49;53.82;96207.03;2116007;28;20065;-57
2023/06/28 00:06:50;;;;;;;7.38;2.60;;;;;;;16.47;54.51;96206.31;2116064;28;20043;-56
2023/06/28 00:07:51;;;;;;;6.82;2.60;;;;;;;16.48;53.95;96210.59;2115748;28;20035;-57
2023/06/28 00:08:53;;;;;;;5.07;2.30;;;;;;;16.47;53.70;96216.78;2115942;28;20043;-57
2023/06/28 00:09:54;;;;;;;4.97;2.00;;;;;;;16.47;54.48;96215.97;2115836;28;20062;-57
2023/06/28 00:10:55;;;;;;;4.03;2.30;;;;;;;16.46;54.05;96211.63;2115412;28;20078;-57
2023/06/28 00:11:56;;;;;;;4.97;2.30;;;;;;;16.46;54.20;96220.31;2115983;28;20035;-57
2023/06/28 00:12:57;;;;;;;13.35;2.70;;;;;;;16.44;54.00;96217.00;2115842;28;20461;-57
2023/06/28 00:13:58;;;;;;;8.15;2.65;;;;;;;16.34;54.74;96199.38;2116165;28;20039;-57
2023/06/28 00:14:59;;;;;;;10.18;2.70;;;;;;;16.42;54.46;96208.38;2115883;28;20039;-56
2023/06/28 00:16:01;;;;;;;6.38;2.28;;;;;;;16.40;54.29;96212.06;2115880;28;20039;-57
2023/06/28 00:17:02;;;;;;;5.53;2.58;;;;;;;16.42;54.53;96215.41;2115949;28;20043;-57
2023/06/28 00:18:03;;;;;;;7.88;2.28;;;;;;;16.40;55.16;96212.88;2115783;28;20044;-57
2023/06/28 00:19:04;;;;;;;7.53;2.17;;;;;;;16.37;54.76;96215.72;2115860;28;20048;-57
2023/06/28 00:20:07;;;;;;;6.35;2.17;;;;;;;16.38;54.64;96214.75;2115342;28;20074;-57
2023/06/28 00:21:08;;;;;;;6.88;2.20;;;;;;;16.35;55.59;96214.97;2114882;28;20118;-57
2023/06/28 00:22:09;;;;;;;7.22;2.40;;;;;;;16.31;55.20;96216.97;2115857;28;20043;-57
2023/06/28 00:23:11;;;;;;;6.75;2.70;;;;;;;16.28;55.48;96217.19;2115795;28;20493;-57
2023/06/28 00:24:12;;;;;;;4.03;2.30;;;;;;;16.29;55.29;96220.63;2115312;28;20384;-57
2023/06/28 00:25:13;;;;;;;5.53;2.30;;;;;;;16.27;56.16;96218.09;2115837;28;20051;-57
2023/06/28 00:26:14;;;;;;;6.55;2.63;;;;;;;16.25;54.72;96219.13;2115274;28;20066;-57
2023/06/28 00:27:15;;;;;;;5.68;2.55;;;;;;;16.24;55.38;96225.34;2115914;28;20363;-57
2023/06/28 00:28:16;;;;;;;5.57;2.38;;;;;;;16.17;55.37;96224.91;2115092;28;20063;-57
2023/06/28 00:29:17;;;;;;;4.68;2.13;;;;;;;16.19;55.48;96232.66;2106578;28;20063;-57
2023/06/28 00:30:18;;;;;;;5.20;2.58;;;;;;;16.20;56.35;96236.94;2106862;28;20067;-57
2023/06/28 00:31:19;;;;;;;6.95;2.38;;;;;;;16.19;56.97;96236.09;2115890;28;20048;-57
2023/06/28 00:32:21;;;;;;;6.63;2.20;;;;;;;16.19;56.12;96238.72;2105818;28;20056;-56
2023/06/28 00:33:22;;;;;;;5.68;2.38;;;;;;;16.24;54.90;96241.06;2106871;28;20043;-57
2023/06/28 00:34:23;;;;;;;4.35;2.20;;;;;;;16.31;54.47;96245.78;2115606;28;20388;-57
2023/06/28 00:35:24;;;;;;;5.55;2.20;;;;;;;16.32;54.96;96246.63;2106833;28;20051;-58
2023/06/28 00:36:25;;;;;;;6.50;2.05;;;;;;;16.32;54.60;96251.88;2098333;28;20052;-57
2023/06/28 00:37:26;;;;;;;4.82;2.30;;;;;;;16.34;54.06;96249.16;2106655;28;20423;-57
2023/06/28 00:38:27;;;;;;;6.25;2.53;;;;;;;16.30;54.76;96251.13;2106803;28;20040;-58
2023/06/28 00:39:28;;;;;;;5.57;2.00;;;;;;;16.22;55.47;96254.25;2098039;28;20060;-58
2023/06/28 00:40:29;;;;;;;4.43;2.47;;;;;;;16.14;56.36;96253.91;2106576;28;20040;-58
2023/06/28 00:41:32;;;;;;;5.88;2.22;;;;;;;16.04;56.19;96252.84;2115735;28;20114;-58
2023/06/28 00:42:33;;;;;;;7.05;2.10;;;;;;;15.99;57.49;96252.31;2114978;28;20074;-58
2023/06/28 00:43:34;;;;;;;4.28;2.38;;;;;;;15.91;57.80;96251.97;2114831;28;20059;-58
2023/06/28 00:44:35;;;;;;;5.45;2.25;;;;;;;15.86;58.56;96252.25;2115212;28;20062;-58
2023/06/28 00:45:36;;;;;;;4.00;2.03;;;;;;;15.76;58.72;96261.63;2105966;28;20059;-58
2023/06/28 00:46:37;;;;;;;8.25;2.20;;;;;;;15.68;58.64;96259.47;2106821;28;20435;-58
2023/06/28 00:47:41;;;;;;;6.53;2.20;;;;;;;15.64;58.73;96261.44;2106618;28;20044;-58
2023/06/28 00:48:42;;;;;;;5.32;2.35;;;;;;;15.54;59.56;96256.88;2089889;28;20045;-58
2023/06/28 00:49:43;;;;;;;8.40;2.10;;;;;;;15.39;60.81;96245.59;2098404;28;20519;-58
2023/06/28 00:50:44;;;;;;;5.45;2.10;;;;;;;15.36;60.88;96259.69;2106206;28;20055;-58
2023/06/28 00:51:46;;;;;;;9.02;2.80;;;;;;;15.25;62.74;96267.38;2106618;28;20060;-58
2023/06/28 00:52:49;;;;;;;4.95;2.25;;;;;;;15.16;64.20;96270.56;2090449;28;20047;-57
2023/06/28 00:53:50;;;;;;;5.93;2.47;;;;;;;14.97;66.02;96276.06;2090371;28;20400;-57
2023/06/28 00:54:52;;;;;;;6.63;2.50;;;;;;;14.78;66.85;96264.09;2106506;28;20040;-58
2023/06/28 00:55:55;;;;;;;5.15;2.42;;;;;;;14.69;69.01;96272.47;2106507;28;20040;-58
2023/06/28 00:56:56;;;;;;;7.97;2.70;;;;;;;14.55;69.59;96275.06;2115517;28;20058;-57
2023/06/28 00:57:58;;;;;;;6.93;2.60;;;;;;;14.45;70.64;96272.09;2106517;28;20047;-58
2023/06/28 00:58:59;;;;;;;6.40;3.03;;;;;;;14.36;70.98;96277.03;2089254;28;20475;-58
2023/06/28 01:00:00;;;;;;;7.75;2.90;;;;;;;14.16;71.11;96276.41;2097963;28;20055;-58
2023/06/28 01:01:01;;;;;;;9.15;3.40;;;;;;;14.09;72.24;96277.69;2089857;28;20044;-58
2023/06/28 01:02:02;;;;;;;7.72;3.33;;;;;;;14.06;72.52;96288.28;2089507;28;20511;-58
2023/06/28 01:03:04;;;;;;;6.38;3.15;;;;;;;14.05;72.22;96299.66;2106421;28;20431;-58
2023/06/28 01:04:06;;;;;;;7.97;3.20;;;;;;;14.00;73.76;96292.09;2106367;28;20044;-58
2023/06/28 01:05:11;;;;;;;7.32;3.20;;;;;;;13.85;73.88;96287.75;2106688;28;20082;-58
2023/06/28 01:06:12;;;;;;;8.98;3.78;;;;;;;13.86;73.75;96300.69;2098134;28;20044;-58
2023/06/28 01:07:13;;;;;;;8.15;3.55;;;;;;;13.74;74.58;96306.59;2089901;28;20385;-58
2023/06/28 01:08:14;;;;;;;8.15;3.63;;;;;;;13.66;75.76;96319.22;2106637;28;20067;-58
2023/06/28 01:09:15;;;;;;;8.18;3.00;;;;;;;13.58;76.63;96319.66;2098038;28;20059;-58
2023/06/28 01:10:17;;;;;;;7.47;3.30;;;;;;;13.49;77.00;96324.50;2097860;28;20503;-58
2023/06/28 01:11:18;;;;;;;7.90;3.67;;;;;;;13.35;78.70;96323.47;2106307;28;20046;-58
2023/06/28 01:12:19;;;;;;;8.68;2.95;;;;;;;13.25;79.48;96323.06;2106542;28;20043;-57
2023/06/28 01:13:20;;;;;;;9.75;3.90;;;;;;;13.16;80.36;96331.38;2106438;28;20043;-58
2023/06/28 01:14:23;;;;;;;10.45;4.18;;;;;;;13.07;81.64;96325.78;2097554;28;20048;-58
2023/06/28 01:15:25;;;;;;;7.80;3.72;;;;;;;13.04;81.12;96329.41;2097781;28;20071;-58
2023/06/28 01:16:26;;;;;;;7.55;4.18;;;;;;;12.95;83.08;96317.69;2105568;28;20060;-58
2023/06/28 01:17:27;;;;;;;8.65;4.18;;;;;;;12.99;81.90;96336.63;2106527;28;20063;-58
2023/06/28 01:18:31;;;;;;;7.80;4.03;;;;;;;12.92;82.86;96345.69;2106402;28;20450;-58
2023/06/28 01:19:32;;;;;;;8.45;4.05;;;;;;;12.92;83.79;96340.47;2114220;28;20055;-58
2023/06/28 01:20:34;;;;;;;9.70;4.32;;;;;;;12.88;84.06;96350.19;2114431;28;20051;-58
2023/06/28 01:21:36;;;;;;;10.93;4.47;;;;;;;12.86;84.52;96344.25;2115436;28;20047;-58
2023/06/28 01:22:40;;;;;;;11.82;4.10;;;;;;;12.71;84.69;96332.81;2097992;28;20052;-58
2023/06/28 01:23:41;;;;;;;9.10;4.28;;;;;;;12.74;85.66;96347.47;2090114;28;20408;-58
2023/06/28 01:24:42;;;;;;;9.65;4.55;;;;;;;12.75;86.69;96355.22;2081900;28;20053;-57
2023/06/28 01:25:43;;;;;;;7.75;4.88;;;;;;;12.72;86.32;96350.16;2097830;28;20152;-58
2023/06/28 01:26:47;;;;;;;7.68;4.20;;;;;;;12.71;86.42;96356.28;2114716;28;20475;-58
2023/06/28 01:27:48;;;;;;;7.45;4.10;;;;;;;12.76;86.44;96358.66;2097713;28;20045;-58
2023/06/28 01:28:49;;;;;;;9.48;4.90;;;;;;;12.77;87.13;96355.94;2089615;28;20072;-58
2023/06/28 01:29:56;;;;;;;9.15;5.03;;;;;;;12.75;87.30;96350.00;2089499;28;20072;-58
2023/06/28 01:30:59;;;;;;;8.32;4.40;;;;;;;12.76;86.90;96362.09;2099231;28;20055;-58
2023/06/28 01:32:01;;;;;;;10.07;4.85;;;;;;;12.72;86.98;96357.09;2115325;28;20039;-58
2023/06/28 01:33:02;;;;;;;7.40;4.80;;;;;;;12.73;88.03;96354.44;2097826;28;20044;-57
2023/06/28 01:34:03;;;;;;;7.97;4.40;;;;;;;12.70;88.21;96348.53;2097444;28;20059;-58
2023/06/28 01:35:05;;;;;;;11.50;5.30;;;;;;;12.73;88.26;96356.22;2114583;28;20403;-58
2023/06/28 01:36:06;;;;;;;7.80;4.70;;;;;;;12.68;88.06;96363.41;2115394;28;20459;-58
2023/06/28 01:37:10;;;;;;;12.35;5.13;;;;;;;12.67;88.70;96362.56;2105751;28;20055;-58
2023/06/28 01:38:11;;;;;;;10.07;5.28;;;;;;;12.71;88.75;96363.25;2097809;28;20052;-58
2023/06/28 01:39:14;;;;;;;9.40;5.15;;;;;;;12.54;88.89;96348.47;2097754;28;20037;-58
2023/06/28 01:40:15;;;;;;;11.25;5.30;;;;;;;12.57;89.46;96351.75;2097626;28;20064;-58
2023/06/28 01:41:16;;;;;;;10.82;5.78;;;;;;;12.66;90.06;96368.69;2097761;28;20053;-58
2023/06/28 01:42:17;;;;;;;12.48;5.20;;;;;;;12.66;89.61;96367.84;2106151;28;20039;-59
2023/06/28 01:43:20;;;;;;;11.63;6.25;;;;;;;12.69;89.74;96360.69;2106398;28;20056;-58
2023/06/28 01:44:21;;;;;;;9.57;5.35;;;;;;;12.75;90.18;96375.19;2097672;28;20053;-58
2023/06/28 01:45:22;;;;;;;9.93;5.30;;;;;;;12.67;90.81;96365.19;2089328;28;20053;-58
2023/06/28 01:46:23;;;;;;;10.85;5.25;;;;;;;12.70;89.88;96372.00;2089738;28;20053;-57
2023/06/28 01:47:26;;;;;;;10.40;5.57;;;;;;;12.67;90.06;96372.13;2089844;28;20055;-58
2023/06/28 01:48:27;;;;;;;12.15;5.20;;;;;;;12.67;90.18;96367.78;2098119;28;20052;-58
2023/06/28 01:49:29;;;;;;;12.27;5.80;;;;;;;12.64;90.35;96367.06;2088820;28;20071;-58
2023/06/28 01:50:30;;;;;;;7.95;5.95;;;;;;;12.66;90.45;96367.84;2089418;28;20045;-58
2023/06/28 01:51:33;;;;;;;12.15;6.15;;;;;;;12.65;90.77;96368.78;2080965;28;20513;-58
2023/06/28 01:52:35;;;;;;;13.63;6.05;;;;;;;12.58;91.19;96350.81;2089546;28;20138;-58
2023/06/28 01:53:36;;;;;;;13.55;6.72;;;;;;;12.67;90.78;96372.13;2106449;28;20048;-58
2023/06/28 01:54:37;;;;;;;13.00;6.47;;;;;;;12.64;91.68;96372.28;2115183;28;20044;-58
2023/06/28 01:55:38;;;;;;;13.73;7.32;;;;;;;12.64;92.00;96367.91;2089356;28;20361;-58
2023/06/28 01:56:39;;;;;;;13.10;6.75;;;;;;;12.65;92.16;96366.16;2081351;28;20049;-58
2023/06/28 01:57:40;;;;;;;10.23;6.18;;;;;;;12.67;92.01;96365.19;2096977;28;20048;-58
2023/06/28 01:58:41;;;;;;;10.85;6.78;;;;;;;12.63;92.74;96357.56;2105018;28;20055;-58
2023/06/28 01:59:42;;;;;;;10.90;6.28;;;;;;;12.68;92.20;96363.41;2097292;28;20420;-58
2023/06/28 02:00:43;;;;;;;14.20;6.22;;;;;;;12.65;92.63;96359.19;2106113;28;20046;-57
2023/06/28 02:01:44;;;;;;;9.25;6.38;;;;;;;12.66;92.31;96360.88;2114528;28;20043;-58
2023/06/28 02:02:46;;;;;;;10.07;6.25;;;;;;;12.60;92.56;96353.34;2115111;28;20050;-58
2023/06/28 02:03:47;;;;;;;10.93;6.60;;;;;;;12.67;92.29;96366.91;2113955;28;20139;-58
2023/06/28 02:04:48;;;;;;;11.48;7.22;;;;;;;12.64;92.77;96367.06;2114462;28;20048;-58
2023/06/28 02:05:49;;;;;;;10.95;6.85;;;;;;;12.63;92.48;96357.56;2105289;28;20056;-58
2023/06/28 02:06:50;;;;;;;8.95;6.70;;;;;;;12.62;92.61;96353.28;2105221;28;20052;-58
2023/06/28 02:07:51;;;;;;;10.15;5.53;;;;;;;12.60;92.25;96360.34;2105016;28;20055;-58
2023/06/28 02:08:52;;;;;;;14.50;5.70;;;;;;;12.61;92.14;96362.84;2106097;28;20040;-57
2023/06/28 02:09:53;;;;;;;10.32;5.68;;;;;;;12.59;92.16;96359.50;2106013;28;20051;-58
2023/06/28 02:10:54;;;;;;;9.25;5.40;;;;;;;12.54;92.02;96358.88;2105550;28;20055;-57
2023/06/28 02:11:55;;;;;;;9.90;5.60;;;;;;;12.51;92.00;96357.28;2096980;28;20060;-58
2023/06/28 02:12:58;;;;;;;12.80;5.40;;;;;;;12.50;91.63;96355.56;2105884;28;20036;-58
2023/06/28 02:13:59;;;;;;;9.85;5.95;;;;;;;12.44;92.57;96345.44;2106224;28;20052;-58
2023/06/28 02:15:03;;;;;;;12.23;5.25;;;;;;;12.44;92.26;96355.03;2106677;28;20399;-58
2023/06/28 02:16:04;;;;;;;9.82;5.80;;;;;;;12.35;91.54;96346.75;2104925;28;20048;-58
2023/06/28 02:17:13;;;;;;;9.63;5.20;;;;;;;12.32;92.32;96351.25;2105011;28;20484;-58
2023/06/28 02:18:16;;;;;;;12.95;5.80;;;;;;;12.34;92.17;96352.03;2106121;28;20484;-61
2023/06/28 02:19:18;;;;;;;11.63;6.13;;;;;;;12.32;93.07;96356.47;2097370;28;20044;-61
2023/06/28 02:20:22;;;;;;;11.20;6.57;;;;;;;12.36;92.47;96363.22;2105190;28;20142;-60
2023/06/28 02:21:23;;;;;;;11.32;6.00;;;;;;;12.32;93.05;96361.66;2106254;28;20067;-61
2023/06/28 02:22:25;;;;;;;9.77;6.00;;;;;;;12.33;93.41;96359.00;2106472;28;20048;-60
2023/06/28 02:23:26;;;;;;;11.13;5.85;;;;;;;12.32;93.67;96351.25;2106583;28;20066;-61
2023/06/28 02:24:27;;;;;;;10.38;5.53;;;;;;;12.28;92.68;96349.72;2106570;28;20054;-60
2023/06/28 02:25:29;;;;;;;12.02;5.93;;;;;;;12.25;93.16;96345.50;2105311;28;20075;-60
2023/06/28 02:26:30;;;;;;;13.80;6.50;;;;;;;12.25;93.72;96350.72;2105038;28;20396;-61
2023/06/28 02:27:31;;;;;;;8.38;5.47;;;;;;;12.25;93.17;96347.28;2106452;28;20051;-60
2023/06/28 02:28:32;;;;;;;9.70;6.10;;;;;;;12.27;93.42;96350.63;2105625;28;20060;-60
2023/06/28 02:29:33;;;;;;;9.82;5.80;;;;;;;12.14;92.82;96335.59;2105036;28;20464;-60
2023/06/28 02:30:34;;;;;;;10.30;6.18;;;;;;;12.21;93.80;96351.75;2097085;28;20052;-61
2023/06/28 02:31:35;;;;;;;13.15;6.47;;;;;;;12.24;93.17;96353.38;2105737;28;20040;-60
2023/06/28 02:32:36;;;;;;;14.82;7.00;;;;;;;12.25;94.50;96347.28;2105736;28;20052;-60
2023/06/28 02:33:37;;;;;;;12.77;6.97;;;;;;;12.27;93.93;96346.28;2105940;28;20048;-61
2023/06/28 02:34:39;;;;;;;10.20;6.68;;;;;;;12.28;94.56;96347.97;2105039;28;20510;-60
2023/06/28 02:35:42;;;;;;;12.73;7.53;;;;;;;12.28;94.78;96352.34;2105969;28;20040;-61
2023/06/28 02:36:44;;;;;;;11.18;6.78;;;;;;;12.33;95.13;96350.34;2106489;28;20043;-60
2023/06/28 02:37:46;;;;;;;11.65;6.53;;;;;;;12.36;95.14;96353.63;2106380;28;20367;-60
2023/06/28 02:38:47;;;;;;;13.73;6.55;;;;;;;12.33;95.36;96352.97;2105935;28;20487;-60
2023/06/28 02:39:48;;;;;;;10.45;6.72;;;;;;;12.34;95.33;96352.88;2104821;28;20059;-60
2023/06/28 02:40:49;;;;;;;9.15;6.75;;;;;;;12.34;95.14;96357.22;2106443;28;20055;-60
2023/06/28 02:41:50;;;;;;;9.95;7.22;;;;;;;12.26;96.08;96333.31;2105786;28;20059;-60
2023/06/28 02:42:51;;;;;;;12.73;7.95;;;;;;;12.35;95.98;96349.34;2106603;28;20043;-60
2023/06/28 02:43:53;;;;;;;13.48;7.13;;;;;;;12.38;96.08;96355.34;2105799;28;20048;-60
2023/06/28 02:44:54;;;;;;;13.80;7.90;;;;;;;12.39;96.06;96350.03;2105844;28;20084;-59
2023/06/28 02:45:56;;;;;;;12.52;7.15;;;;;;;12.39;96.11;96352.66;2105320;28;20486;-60
2023/06/28 02:46:57;;;;;;;12.15;7.38;;;;;;;12.38;96.13;96348.38;2105101;28;20059;-60
2023/06/28 02:47:58;;;;;;;13.95;7.95;;;;;;;12.41;96.40;96348.22;2104851;28;20048;-60
2023/06/28 02:48:59;;;;;;;12.90;8.68;;;;;;;12.41;95.93;96349.97;2106043;28;20474;-60
2023/06/28 02:50:05;;;;;;;11.52;8.13;;;;;;;12.28;96.51;96324.53;2096908;28;20048;-59
2023/06/28 02:51:08;;;;;;;10.77;7.60;;;;;;;12.40;96.10;96345.66;2090336;28;20041;-60
2023/06/28 02:52:10;;;;;;;17.58;8.00;;;;;;;12.42;96.90;96346.44;2088448;28;20048;-60
2023/06/28 02:53:11;;;;;;;18.67;9.38;;;;;;;12.36;96.89;96339.78;2088284;28;20112;-59
2023/06/28 02:54:12;;;;;;;15.45;7.90;;;;;;;12.40;96.90;96343.91;2096799;28;20067;-59
2023/06/28 02:55:14;;;;;;;11.15;7.55;;;;;;;12.44;96.29;96342.84;2105092;28;20106;-59
2023/06/28 02:56:15;;;;;;;15.75;8.35;;;;;;;12.49;96.73;96340.88;2104650;28;20052;-60
2023/06/28 02:57:54;;;;;;;11.52;8.00;;;;;;;12.42;96.14;96339.47;2088019;28;20065;-59
2023/06/28 02:58:56;;;;;;;14.30;7.43;;;;;;;12.41;96.12;96343.00;2080293;28;20049;-61
2023/06/28 02:59:57;;;;;;;13.40;8.10;;;;;;;12.41;96.26;96344.78;2080646;28;20037;-61
2023/06/28 03:00:58;;;;;;;12.95;8.27;;;;;;;12.39;96.81;96344.84;2089151;28;20049;-61
2023/06/28 03:01:59;;;;;;;17.70;8.98;;;;;;;12.31;96.89;96334.78;2088359;28;20060;-61
2023/06/28 03:03:03;;;;;;;18.48;8.43;;;;;;;12.35;96.65;96338.94;2087703;28;20053;-61
2023/06/28 03:04:07;;;;;;;13.40;8.00;;;;;;;12.41;96.74;96345.59;2104448;28;20057;-61
2023/06/28 03:05:08;;;;;;;12.70;7.88;;;;;;;12.38;96.59;96344.94;2097391;28;20122;-61
2023/06/28 03:06:09;;;;;;;15.18;7.90;;;;;;;12.37;96.88;96338.84;2096448;28;20071;-61
2023/06/28 03:07:16;;;;;;;14.45;7.82;;;;;;;12.32;96.95;96338.22;2088831;28;20053;-61
2023/06/28 03:08:18;;;;;;;13.27;7.80;;;;;;;12.29;96.78;96346.19;2089880;28;20432;-61
2023/06/28 03:09:20;;;;;;;12.63;7.20;;;;;;;12.30;96.51;96338.31;2088833;28;20129;-60
2023/06/28 03:10:21;;;;;;;12.05;6.88;;;;;;;12.28;95.92;96334.94;2088855;28;20079;-61
2023/06/28 03:11:22;;;;;;;14.75;8.13;;;;;;;12.28;96.63;96345.34;2088934;28;20060;-61
2023/06/28 03:12:24;;;;;;;16.23;7.57;;;;;;;12.34;95.96;96344.22;2096651;28;20052;-62
2023/06/28 03:13:25;;;;;;;11.57;8.30;;;;;;;12.33;96.04;96337.31;2088826;28;20057;-60
2023/06/28 03:14:27;;;;;;;15.20;7.45;;;;;;;12.31;96.12;96337.38;2088976;28;20045;-61
2023/06/28 03:15:28;;;;;;;12.00;7.68;;;;;;;12.30;96.18;96342.69;2097391;28;20044;-60
2023/06/28 03:16:29;;;;;;;12.52;8.52;;;;;;;12.28;96.60;96329.72;2097623;28;20054;-61
2023/06/28 03:17:30;;;;;;;13.43;8.00;;;;;;;12.29;97.09;96347.03;2097245;28;20048;-61
2023/06/28 03:18:31;;;;;;;19.25;9.18;;;;;;;12.27;97.17;96338.47;2097138;28;20431;-61
2023/06/28 03:19:33;;;;;;;12.38;7.95;;;;;;;12.27;96.95;96338.47;2097267;28;20052;-61
2023/06/28 03:20:34;;;;;;;19.27;8.30;;;;;;;12.31;97.07;96349.56;2097205;28;20119;-61
2023/06/28 03:21:35;;;;;;;13.75;8.50;;;;;;;12.29;97.34;96347.03;2097213;28;20047;-61
2023/06/28 03:22:37;;;;;;;10.70;8.18;;;;;;;12.30;97.57;96338.31;2105097;28;20060;-61
2023/06/28 03:23:38;;;;;;;13.70;8.50;;;;;;;12.32;97.74;96340.84;2097280;28;20048;-61
2023/06/28 03:24:40;;;;;;;15.15;8.30;;;;;;;12.31;97.62;96333.94;2096873;28;20445;-61
2023/06/28 03:25:41;;;;;;;14.35;9.35;;;;;;;12.32;97.99;96346.03;2105404;28;20063;-61
2023/06/28 03:26:42;;;;;;;11.52;8.07;;;;;;;12.32;98.32;96339.09;2097310;28;20063;-61
2023/06/28 03:27:43;;;;;;;14.25;8.70;;;;;;;12.32;98.29;96330.41;2097396;28;20132;-60
2023/06/28 03:28:44;;;;;;;16.98;8.70;;;;;;;12.35;98.16;96332.91;2096458;28;20052;-61
2023/06/28 03:29:46;;;;;;;11.23;8.57;;;;;;;12.35;98.32;96338.09;2089132;28;20041;-61
2023/06/28 03:30:47;;;;;;;11.57;7.85;;;;;;;12.36;98.39;96342.38;2088566;28;20048;-61
2023/06/28 03:31:48;;;;;;;12.23;8.57;;;;;;;12.35;98.48;96336.34;2097099;28;20032;-61
2023/06/28 03:32:49;;;;;;;12.88;8.20;;;;;;;12.21;98.00;96324.88;2105501;28;20044;-61
2023/06/28 03:33:51;;;;;;;15.75;8.80;;;;;;;12.30;97.60;96334.88;2097187;28;20055;-61
2023/06/28 03:34:52;;;;;;;13.75;8.75;;;;;;;12.33;98.23;96332.13;2088316;28;20060;-61
2023/06/28 03:35:53;;;;;;;12.20;8.38;;;;;;;12.32;98.64;96328.69;2088848;28;20048;-61
2023/06/28 03:36:55;;;;;;;12.63;7.90;;;;;;;12.32;97.81;96333.88;2096851;28;20443;-60
2023/06/28 03:37:56;;;;;;;13.50;7.93;;;;;;;12.32;98.20;96335.63;2096404;28;20418;-61
2023/06/28 03:38:57;;;;;;;12.10;8.35;;;;;;;12.28;98.38;96324.53;2098043;28;20036;-59
2023/06/28 03:39:58;;;;;;;12.98;8.95;;;;;;;12.34;98.00;96332.03;2096873;28;20040;-59
2023/06/28 03:41:00;;;;;;;15.25;9.00;;;;;;;12.34;98.60;96326.81;2097310;28;20045;-59
2023/06/28 03:42:01;;;;;;;14.30;7.68;;;;;;;12.36;98.47;96332.81;2097304;28;20044;-59
2023/06/28 03:43:03;;;;;;;13.63;8.88;;;;;;;12.37;98.63;96325.81;2097355;28;20499;-59
2023/06/28 03:44:04;;;;;;;14.25;8.77;;;;;;;12.34;98.48;96323.38;2098590;28;20132;-59
2023/06/28 03:45:05;;;;;;;13.45;7.85;;;;;;;12.38;97.96;96329.31;2090771;28;20512;-59
2023/06/28 03:46:07;;;;;;;14.13;7.80;;;;;;;12.38;97.81;96322.31;2098174;28;20048;-58
2023/06/28 03:47:08;;;;;;;13.07;8.88;;;;;;;12.30;97.75;96307.06;2089779;28;20043;-59
2023/06/28 03:48:11;;;;;;;12.70;7.78;;;;;;;12.38;97.93;96319.72;2082430;28;20093;-59
2023/06/28 03:49:12;;;;;;;18.38;8.25;;;;;;;12.36;97.97;96317.19;2098246;28;20097;-59
2023/06/28 03:50:13;;;;;;;14.05;7.70;;;;;;;12.36;97.92;96316.34;2098222;28;20067;-59
2023/06/28 03:51:14;;;;;;;12.90;8.10;;;;;;;12.36;97.42;96319.78;2090300;28;20052;-59
2023/06/28 03:52:16;;;;;;;11.00;7.45;;;;;;;12.32;97.31;96315.66;2089743;28;20457;-59
2023/06/28 03:53:18;;;;;;;12.23;7.57;;;;;;;12.33;97.34;96319.94;2089816;28;20117;-59
2023/06/28 03:54:19;;;;;;;13.63;8.30;;;;;;;12.35;97.25;96317.28;2090458;28;20465;-59
2023/06/28 03:55:20;;;;;;;13.25;7.45;;;;;;;12.34;97.25;96321.59;2098518;28;20049;-59
2023/06/28 03:56:21;;;;;;;11.05;7.00;;;;;;;12.33;96.63;96321.69;2099222;28;20056;-59
2023/06/28 03:57:22;;;;;;;10.68;6.88;;;;;;;12.31;96.30;96323.53;2099205;28;20036;-59
2023/06/28 03:58:23;;;;;;;12.93;7.25;;;;;;;12.34;96.36;96325.97;2098295;28;20060;-59
2023/06/28 03:59:24;;;;;;;11.50;6.65;;;;;;;12.34;95.92;96321.59;2090099;28;20060;-58
2023/06/28 04:00:25;;;;;;;11.23;6.75;;;;;;;12.34;95.93;96325.97;2098326;28;20055;-59
2023/06/28 04:01:27;;;;;;;11.15;6.82;;;;;;;12.34;95.85;96325.97;2099217;28;20059;-59
2023/06/28 04:02:28;;;;;;;10.25;6.72;;;;;;;12.38;96.27;96332.75;2099379;28;20154;-58
2023/06/28 04:03:29;;;;;;;12.73;7.25;;;;;;;12.29;96.40;96320.16;2098923;28;20064;-59
2023/06/28 04:04:30;;;;;;;11.95;7.40;;;;;;;12.36;96.39;96331.97;2099194;28;20052;-58
2023/06/28 04:05:31;;;;;;;11.85;7.28;;;;;;;12.36;95.89;96334.56;2098963;28;20056;-59
2023/06/28 04:06:32;;;;;;;12.63;8.15;;;;;;;12.39;96.46;96325.75;2106041;28;20082;-58
2023/06/28 04:07:33;;;;;;;12.88;8.13;;;;;;;12.42;97.04;96328.22;2118842;28;20036;-58
2023/06/28 04:08:35;;;;;;;15.73;8.68;;;;;;;12.41;97.06;96332.59;2115960;28;20047;-59
2023/06/28 04:09:36;;;;;;;10.15;7.30;;;;;;;12.42;96.98;96321.25;2106421;28;20056;-59
2023/06/28 04:10:38;;;;;;;14.48;7.85;;;;;;;12.41;96.92;96319.56;2106923;28;20067;-59
2023/06/28 04:11:39;;;;;;;11.25;7.60;;;;;;;12.42;97.00;96323.00;2115197;28;20059;-59
2023/06/28 04:12:40;;;;;;;12.02;7.72;;;;;;;12.41;97.24;96321.34;2115915;28;20043;-59
2023/06/28 04:13:41;;;;;;;11.07;7.15;;;;;;;12.42;96.74;96320.41;2115062;28;20069;-59
2023/06/28 04:14:42;;;;;;;11.93;7.57;;;;;;;12.40;97.05;96319.63;2115153;28;20051;-59
2023/06/28 04:15:43;;;;;;;14.23;8.27;;;;;;;12.39;97.01;96317.94;2114860;28;20451;-59
2023/06/28 04:16:44;;;;;;;10.65;7.00;;;;;;;12.40;97.35;96327.44;2115266;28;20055;-59
2023/06/28 04:17:45;;;;;;;13.40;7.25;;;;;;;12.38;97.30;96319.72;2115333;28;20141;-57
2023/06/28 04:18:47;;;;;;;12.52;8.13;;;;;;;12.38;96.55;96314.50;2106831;28;20447;-58
2023/06/28 04:19:48;;;;;;;10.27;7.25;;;;;;;12.39;97.42;96329.22;2107099;28;20051;-57
2023/06/28 04:20:49;;;;;;;12.77;8.60;;;;;;;12.40;97.03;96324.84;2115067;28;20063;-59
2023/06/28 04:21:50;;;;;;;11.32;8.02;;;;;;;12.39;97.67;96321.41;2115510;28;20475;-58
2023/06/28 04:22:52;;;;;;;11.27;8.15;;;;;;;12.39;97.36;96317.94;2116241;28;20044;-57
2023/06/28 04:23:53;;;;;;;14.68;8.43;;;;;;;12.41;97.41;96324.78;2115347;28;20055;-56
2023/06/28 04:24:54;;;;;;;14.75;7.43;;;;;;;12.38;97.21;96324.94;2115968;28;20043;-57
2023/06/28 04:25:57;;;;;;;11.15;7.30;;;;;;;12.40;97.39;96323.06;2115723;28;20050;-57
2023/06/28 04:27:00;;;;;;;12.25;7.60;;;;;;;12.41;96.87;96321.34;2115048;28;20406;-58
2023/06/28 04:28:01;;;;;;;13.38;6.97;;;;;;;12.43;97.26;96324.69;2115721;28;20040;-59
2023/06/28 04:29:02;;;;;;;13.07;7.70;;;;;;;12.46;96.12;96324.56;2116058;28;20101;-59
2023/06/28 04:30:04;;;;;;;15.60;7.45;;;;;;;12.44;96.91;96324.63;2115104;28;20047;-57
2023/06/28 04:31:05;;;;;;;12.15;7.45;;;;;;;12.44;96.52;96324.63;2115966;28;20047;-57
2023/06/28 04:32:21;;;;;;;14.05;8.07;;;;;;;12.46;96.61;96325.38;2115022;28;20074;-58
2023/06/28 04:33:22;;;;;;;11.70;7.68;;;;;;;12.47;97.08;96324.47;2115172;28;20078;-58
2023/06/28 04:34:23;;;;;;;14.77;7.25;;;;;;;12.45;96.74;96326.28;2106622;28;20048;-58
2023/06/28 04:35:24;;;;;;;12.63;7.10;;;;;;;12.44;96.33;96322.00;2106681;28;20035;-57
2023/06/28 04:36:25;;;;;;;10.18;7.63;;;;;;;12.47;96.62;96329.66;2114669;28;20055;-58
2023/06/28 04:37:27;;;;;;;9.15;6.75;;;;;;;12.38;96.18;96309.31;2115604;28;20482;-58
2023/06/28 04:38:32;;;;;;;12.75;7.63;;;;;;;12.39;95.98;96313.59;2115100;28;20067;-57
2023/06/28 04:39:33;;;;;;;16.00;8.00;;;;;;;12.50;96.55;96324.31;2115054;28;20063;-57
2023/06/28 04:40:34;;;;;;;12.30;7.50;;;;;;;12.49;96.35;96327.84;2115154;28;20470;-57
2023/06/28 04:41:35;;;;;;;11.02;6.95;;;;;;;12.51;96.54;96325.13;2115046;28;20059;-57
2023/06/28 04:42:36;;;;;;;13.93;7.53;;;;;;;12.53;96.07;96329.34;2115846;28;20043;-56
2023/06/28 04:43:41;;;;;;;15.10;7.80;;;;;;;12.49;95.99;96320.03;2115047;28;20058;-57
2023/06/28 04:44:47;;;;;;;14.18;7.00;;;;;;;12.52;95.96;96326.84;2115135;28;20079;-57
2023/06/28 04:45:48;;;;;;;15.05;7.18;;;;;;;12.53;95.81;96325.91;2114901;28;20047;-59
2023/06/28 04:46:50;;;;;;;13.68;7.57;;;;;;;12.55;95.91;96331.91;2114857;28;20047;-58
2023/06/28 04:47:52;;;;;;;12.70;7.85;;;;;;;12.52;96.14;96327.69;2114870;28;20478;-57
2023/06/28 04:48:53;;;;;;;14.20;7.85;;;;;;;12.41;95.42;96298.72;2115683;28;20050;-57